createdAt,value
2023-05-17T00:00:01.443Z,3.27
2023-05-17T00:02:50.769Z,3.70
2023-05-17T00:05:22.152Z,3.07
2023-05-17T00:07:54.625Z,3.27
2023-05-17T00:10:24.038Z,3.67
2023-05-17T00:12:54.938Z,3.23
2023-05-17T00:15:23.160Z,2.73
2023-05-17T00:17:51.790Z,2.83
2023-05-17T00:20:22.902Z,2.43
2023-05-17T00:22:55.215Z,2.20
2023-05-17T00:25:26.118Z,2.67
2023-05-17T00:27:54.730Z,2.90
2023-05-17T00:30:22.995Z,2.60
2023-05-17T00:32:59.274Z,2.60
2023-05-17T00:35:30.214Z,2.40
2023-05-17T00:38:06.109Z,2.70
2023-05-17T00:40:39.798Z,2.47
2023-05-17T00:43:09.601Z,2.70
2023-05-17T00:45:41.887Z,2.50
2023-05-17T00:48:13.946Z,3.00
2023-05-17T00:50:49.977Z,2.77
2023-05-17T00:53:21.319Z,2.30
2023-05-17T00:55:51.242Z,2.33
2023-05-17T00:58:21.895Z,2.77
2023-05-17T01:00:51.670Z,2.23
2023-05-17T01:03:19.913Z,2.20
2023-05-17T01:05:51.585Z,2.43
2023-05-17T01:08:29.346Z,2.60
2023-05-17T01:11:04.199Z,2.03
2023-05-17T01:13:38.715Z,2.70
2023-05-17T01:16:19.013Z,2.00
2023-05-17T01:18:58.289Z,2.23
2023-05-17T01:21:59.417Z,2.27
2023-05-17T01:24:45.261Z,1.63
2023-05-17T01:27:19.499Z,2.20
2023-05-17T01:29:54.448Z,2.00
2023-05-17T01:32:22.703Z,1.83
2023-05-17T01:34:59.356Z,1.97
2023-05-17T01:37:37.489Z,2.13
2023-05-17T01:40:13.261Z,1.60
2023-05-17T01:42:57.511Z,2.30
2023-05-17T01:45:30.002Z,2.40
2023-05-17T01:48:13.952Z,1.73
2023-05-17T01:50:44.910Z,1.90
2023-05-17T01:53:26.574Z,1.60
2023-05-17T01:56:02.845Z,1.60
2023-05-17T01:58:44.083Z,1.80
2023-05-17T02:01:14.714Z,1.83
2023-05-17T02:03:48.028Z,1.80
2023-05-17T02:06:22.319Z,1.30
2023-05-17T02:08:54.636Z,1.43
2023-05-17T02:11:28.667Z,1.50
2023-05-17T02:14:00.880Z,2.00
2023-05-17T02:16:37.722Z,1.67
2023-05-17T02:19:07.728Z,1.60
2023-05-17T02:21:39.192Z,1.43
2023-05-17T02:24:19.580Z,1.50
2023-05-17T02:26:51.300Z,1.70
2023-05-17T02:29:29.109Z,2.00
2023-05-17T02:32:02.988Z,1.80
2023-05-17T02:34:36.856Z,1.80
2023-05-17T02:37:14.268Z,2.00
2023-05-17T02:40:02.421Z,2.00
2023-05-17T02:42:32.612Z,2.23
2023-05-17T02:45:14.778Z,2.27
2023-05-17T02:47:44.746Z,1.80
2023-05-17T02:50:16.791Z,1.80
2023-05-17T02:52:47.037Z,2.27
2023-05-17T02:55:20.677Z,2.27
2023-05-17T02:57:54.773Z,1.80
2023-05-17T03:00:31.545Z,2.27
2023-05-17T03:03:06.988Z,2.00
2023-05-17T03:05:36.061Z,2.57
2023-05-17T03:08:24.697Z,2.30
2023-05-17T03:10:55.319Z,2.73
2023-05-17T03:13:23.755Z,2.40
2023-05-17T03:15:56.753Z,1.90
2023-05-17T03:18:28.135Z,2.43
2023-05-17T03:20:56.966Z,2.17
2023-05-17T03:23:28.691Z,2.60
2023-05-17T03:26:08.541Z,2.57
2023-05-17T03:28:45.182Z,2.50
2023-05-17T03:31:20.725Z,2.70
2023-05-17T03:34:04.322Z,2.47
2023-05-17T03:36:37.770Z,2.70
2023-05-17T03:39:14.728Z,2.37
2023-05-17T03:41:48.056Z,2.40
2023-05-17T03:44:22.641Z,2.20
2023-05-17T03:46:55.664Z,2.47
2023-05-17T03:49:28.235Z,2.40
2023-05-17T03:52:05.306Z,2.57
2023-05-17T03:54:37.595Z,2.50
2023-05-17T03:57:06.360Z,2.50
2023-05-17T03:59:37.966Z,2.67
2023-05-17T04:02:09.446Z,2.20
2023-05-17T04:04:49.606Z,2.87
2023-05-17T04:07:27.495Z,2.30
2023-05-17T04:10:10.408Z,3.10
2023-05-17T04:12:42.053Z,2.43
2023-05-17T04:15:13.638Z,2.33
2023-05-17T04:17:54.943Z,2.40
2023-05-17T04:20:26.604Z,2.47
2023-05-17T04:22:55.058Z,2.43
2023-05-17T04:25:25.787Z,2.10
2023-05-17T04:27:58.126Z,2.10
2023-05-17T04:30:29.458Z,2.30
2023-05-17T04:33:01.132Z,2.60
2023-05-17T04:35:35.030Z,1.90
2023-05-17T04:38:07.292Z,2.23
2023-05-17T04:40:37.826Z,2.47
2023-05-17T04:43:16.347Z,2.27
2023-05-17T04:45:47.799Z,2.10
2023-05-17T04:48:21.537Z,1.80
2023-05-17T04:50:52.484Z,1.97
2023-05-17T04:53:21.098Z,2.27
2023-05-17T04:55:52.828Z,1.93
2023-05-17T04:58:24.736Z,2.07
2023-05-17T05:00:58.689Z,1.80
2023-05-17T05:03:38.970Z,1.67
2023-05-17T05:06:19.656Z,1.90
2023-05-17T05:09:03.984Z,1.90
2023-05-17T05:11:36.498Z,2.33
2023-05-17T05:14:09.472Z,2.03
2023-05-17T05:16:40.910Z,1.63
2023-05-17T05:19:22.838Z,2.00
2023-05-17T05:21:53.888Z,2.00
2023-05-17T05:24:30.385Z,2.03
2023-05-17T05:27:01.223Z,2.20
2023-05-17T05:29:38.904Z,1.80
2023-05-17T05:32:11.945Z,1.83
2023-05-17T05:34:50.962Z,2.07
2023-05-17T05:37:20.083Z,1.70
2023-05-17T05:40:07.004Z,1.60
2023-05-17T05:42:39.846Z,1.40
2023-05-17T05:45:11.155Z,2.77
2023-05-17T05:47:49.534Z,2.20
2023-05-17T05:50:31.334Z,2.60
2023-05-17T05:53:18.217Z,2.20
2023-05-17T05:56:12.932Z,2.70
2023-05-17T05:58:57.040Z,1.90
2023-05-17T06:01:30.225Z,2.10
2023-05-17T06:04:01.567Z,2.47
2023-05-17T06:06:42.671Z,2.37
2023-05-17T06:09:19.742Z,2.87
2023-05-17T06:11:50.412Z,2.87
2023-05-17T06:14:21.764Z,2.20
2023-05-17T06:16:50.405Z,3.00
2023-05-17T06:19:20.942Z,2.40
2023-05-17T06:21:54.682Z,3.00
2023-05-17T06:24:25.095Z,3.10
2023-05-17T06:26:56.489Z,3.13
2023-05-17T06:29:26.308Z,3.10
2023-05-17T06:32:06.460Z,3.10
2023-05-17T06:34:40.515Z,2.93
2023-05-17T06:37:17.421Z,2.73
2023-05-17T06:39:55.440Z,2.90
2023-05-17T06:42:30.027Z,2.83
2023-05-17T06:44:59.256Z,2.93
2023-05-17T06:47:28.758Z,2.40
2023-05-17T06:49:59.409Z,3.50
2023-05-17T06:52:29.724Z,3.17
2023-05-17T06:55:04.346Z,3.07
2023-05-17T06:57:33.660Z,3.23
2023-05-17T07:00:06.424Z,2.77
2023-05-17T07:02:42.995Z,3.20
2023-05-17T07:05:12.728Z,3.43
2023-05-17T07:07:48.051Z,2.90
2023-05-17T07:10:22.529Z,3.20
2023-05-17T07:12:53.138Z,3.47
2023-05-17T07:15:22.708Z,2.87
2023-05-17T07:17:51.278Z,3.77
2023-05-17T07:20:22.435Z,3.30
2023-05-17T07:22:53.672Z,5.00
2023-05-17T07:25:23.034Z,3.70
2023-05-17T07:27:53.685Z,3.63
2023-05-17T07:30:26.372Z,3.30
2023-05-17T07:32:58.141Z,3.60
2023-05-17T07:35:30.227Z,4.07
2023-05-17T07:38:08.307Z,3.10
2023-05-17T07:40:37.283Z,4.23
2023-05-17T07:43:08.929Z,3.50
2023-05-17T07:45:37.430Z,3.10
2023-05-17T07:48:09.805Z,3.13
2023-05-17T07:50:41.591Z,3.47
2023-05-17T07:53:21.516Z,4.03
2023-05-17T07:55:53.276Z,3.30
2023-05-17T07:58:21.288Z,2.70
2023-05-17T08:00:53.030Z,3.00
2023-05-17T08:03:23.594Z,3.10
2023-05-17T08:06:02.696Z,3.37
2023-05-17T08:08:35.048Z,3.20
2023-05-17T08:11:03.356Z,3.27
2023-05-17T08:13:31.533Z,3.67
2023-05-17T08:16:12.892Z,3.63
2023-05-17T08:18:46.339Z,3.23
2023-05-17T08:21:30.104Z,3.43
2023-05-17T08:24:03.965Z,3.07
2023-05-17T08:26:35.979Z,2.80
2023-05-17T08:29:07.829Z,3.13
2023-05-17T08:31:39.014Z,2.57
2023-05-17T08:34:07.478Z,3.50
2023-05-17T08:36:44.577Z,3.33
2023-05-17T08:39:16.715Z,2.60
2023-05-17T08:41:49.454Z,3.07
2023-05-17T08:44:27.004Z,2.97
2023-05-17T08:46:59.326Z,3.13
2023-05-17T08:49:31.346Z,2.40
2023-05-17T08:52:10.406Z,2.60
2023-05-17T08:54:42.982Z,2.87
2023-05-17T08:57:16.239Z,3.53
2023-05-17T08:59:59.256Z,2.97
2023-05-17T09:02:33.201Z,2.77
2023-05-17T09:05:07.615Z,3.13
2023-05-17T09:07:38.534Z,3.17
2023-05-17T09:10:20.484Z,2.43
2023-05-17T09:12:52.365Z,2.30
2023-05-17T09:15:27.742Z,3.37
2023-05-17T09:17:58.311Z,3.17
2023-05-17T09:20:34.223Z,3.13
2023-05-17T09:23:02.707Z,2.80
2023-05-17T09:25:39.664Z,3.50
2023-05-17T09:28:08.911Z,3.10
2023-05-17T09:30:47.109Z,4.00
2023-05-17T09:33:21.605Z,4.13
2023-05-17T09:35:54.183Z,3.03
2023-05-17T09:38:32.452Z,2.77
2023-05-17T09:41:11.220Z,3.00
2023-05-17T09:43:40.240Z,3.17
2023-05-17T09:46:16.856Z,2.93
2023-05-17T09:48:57.148Z,3.07
2023-05-17T09:51:38.360Z,2.90
2023-05-17T09:54:10.298Z,2.90
2023-05-17T09:56:54.651Z,3.57
2023-05-17T09:59:23.738Z,3.00
2023-05-17T10:01:52.477Z,3.30
2023-05-17T10:04:25.983Z,4.03
2023-05-17T10:06:56.609Z,3.00
2023-05-17T10:09:25.797Z,3.40
2023-05-17T10:12:16.833Z,2.60
2023-05-17T10:14:46.383Z,2.30
2023-05-17T10:17:19.917Z,3.07
2023-05-17T10:19:51.397Z,3.83
2023-05-17T10:22:24.154Z,3.53
2023-05-17T10:24:52.838Z,3.40
2023-05-17T10:27:24.437Z,2.90
2023-05-17T10:29:57.237Z,3.20
2023-05-17T10:32:28.603Z,3.30
2023-05-17T10:35:10.129Z,3.40
2023-05-17T10:37:43.842Z,3.90
2023-05-17T10:40:20.021Z,4.50
2023-05-17T10:43:01.550Z,3.07
2023-05-17T10:45:41.018Z,3.40
2023-05-17T10:48:10.373Z,3.10
2023-05-17T10:51:00.627Z,3.30
2023-05-17T10:53:31.115Z,3.53
2023-05-17T10:56:01.894Z,4.10
2023-05-17T10:58:33.557Z,3.20
2023-05-17T11:01:03.214Z,3.13
2023-05-17T11:03:34.687Z,3.23
2023-05-17T11:06:25.180Z,3.57
2023-05-17T11:09:10.852Z,3.53
2023-05-17T11:12:10.558Z,3.40
2023-05-17T11:14:51.126Z,3.20
2023-05-17T11:17:21.960Z,4.10
2023-05-17T11:19:56.676Z,3.33
2023-05-17T11:22:26.797Z,3.63
2023-05-17T11:24:58.829Z,3.60
2023-05-17T11:27:29.706Z,3.40
2023-05-17T11:30:11.053Z,3.10
2023-05-17T11:32:40.670Z,3.60
2023-05-17T11:35:17.045Z,3.20
2023-05-17T11:37:48.645Z,2.87
2023-05-17T11:40:28.684Z,3.00
2023-05-17T11:43:14.870Z,3.60
2023-05-17T11:45:53.157Z,3.60
2023-05-17T11:48:25.855Z,2.90
2023-05-17T11:51:00.626Z,3.37
2023-05-17T11:53:39.316Z,3.20
2023-05-17T11:56:10.408Z,2.93
2023-05-17T11:58:47.407Z,3.37
2023-05-17T12:01:19.457Z,3.30
2023-05-17T12:03:48.890Z,3.40
2023-05-17T12:06:21.245Z,3.03
2023-05-17T12:08:52.879Z,3.10
2023-05-17T12:11:23.986Z,3.63
2023-05-17T12:13:53.650Z,3.70
2023-05-17T12:16:24.170Z,4.70
2023-05-17T12:18:55.450Z,3.47
2023-05-17T12:21:30.921Z,3.70
2023-05-17T12:24:02.780Z,2.80
2023-05-17T12:26:34.428Z,3.17
2023-05-17T12:29:05.630Z,3.70
2023-05-17T12:31:44.791Z,3.00
2023-05-17T12:34:22.140Z,3.10
2023-05-17T12:36:54.997Z,3.40
2023-05-17T12:39:26.938Z,3.10
2023-05-17T12:41:56.097Z,4.47
2023-05-17T12:44:27.606Z,3.40
2023-05-17T12:46:58.063Z,3.67
2023-05-17T12:49:27.507Z,4.43
2023-05-17T12:51:57.841Z,4.70
2023-05-17T12:54:30.561Z,3.57
2023-05-17T12:57:00.836Z,4.03
2023-05-17T12:59:36.560Z,4.03
2023-05-17T13:02:06.486Z,3.60
2023-05-17T13:04:39.344Z,3.77
2023-05-17T13:07:07.866Z,4.10
2023-05-17T13:09:50.639Z,3.77
2023-05-17T13:12:27.238Z,3.03
2023-05-17T13:15:00.047Z,4.27
2023-05-17T13:17:46.985Z,3.23
2023-05-17T13:20:22.584Z,3.40
2023-05-17T13:22:51.232Z,3.50
2023-05-17T13:25:23.902Z,3.60
2023-05-17T13:27:55.493Z,3.20
2023-05-17T13:30:26.260Z,3.60
2023-05-17T13:32:59.089Z,3.80
2023-05-17T13:35:32.188Z,3.00
2023-05-17T13:38:03.981Z,2.83
2023-05-17T13:40:36.055Z,3.20
2023-05-17T13:43:09.981Z,3.57
2023-05-17T13:45:39.774Z,3.10
2023-05-17T13:48:10.515Z,2.80
2023-05-17T13:50:39.763Z,3.17
2023-05-17T13:53:13.589Z,3.80
2023-05-17T13:55:43.111Z,4.57
2023-05-17T13:58:12.041Z,3.47
2023-05-17T14:00:43.107Z,2.93
2023-05-17T14:03:14.790Z,3.70
2023-05-17T14:05:50.558Z,2.93
2023-05-17T14:08:21.290Z,2.83
2023-05-17T14:10:51.971Z,3.30
2023-05-17T14:13:21.102Z,3.73
2023-05-17T14:15:52.748Z,3.10
2023-05-17T14:18:22.420Z,4.10
2023-05-17T14:20:53.298Z,3.50
2023-05-17T14:23:22.667Z,4.00
2023-05-17T14:25:52.133Z,3.73
2023-05-17T14:28:20.877Z,4.13
2023-05-17T14:30:48.867Z,3.77
2023-05-17T14:33:22.339Z,3.53
2023-05-17T14:35:53.443Z,3.73
2023-05-17T14:38:22.980Z,4.30
2023-05-17T14:40:52.219Z,4.37
2023-05-17T14:43:23.564Z,4.80
2023-05-17T14:45:53.997Z,4.30
2023-05-17T14:48:25.363Z,5.00
2023-05-17T14:50:59.526Z,4.80
2023-05-17T14:53:29.796Z,5.37
2023-05-17T14:55:59.440Z,4.80
2023-05-17T14:58:29.354Z,5.03
2023-05-17T15:01:05.797Z,5.07
2023-05-17T15:03:37.418Z,5.40
2023-05-17T15:06:20.970Z,6.63
2023-05-17T15:08:58.015Z,6.23
2023-05-17T15:11:27.252Z,6.20
2023-05-17T15:13:59.489Z,5.63
2023-05-17T15:16:30.279Z,5.30
2023-05-17T15:19:00.994Z,5.40
2023-05-17T15:21:34.283Z,5.50
2023-05-17T15:24:05.830Z,6.33
2023-05-17T15:26:37.149Z,7.40
2023-05-17T15:29:06.619Z,6.67
2023-05-17T15:31:35.239Z,5.70
2023-05-17T15:34:08.907Z,7.20
2023-05-17T15:36:46.763Z,6.90
2023-05-17T15:39:16.299Z,7.87
2023-05-17T15:41:45.929Z,6.70
2023-05-17T15:44:18.785Z,7.40
2023-05-17T15:46:50.638Z,7.70
2023-05-17T15:49:20.961Z,6.83
2023-05-17T15:51:52.890Z,7.37
2023-05-17T15:54:21.476Z,7.10
2023-05-17T15:56:51.101Z,6.60
2023-05-17T15:59:21.607Z,6.77
2023-05-17T16:01:52.117Z,7.37
2023-05-17T16:04:21.537Z,7.13
2023-05-17T16:06:51.384Z,7.47
2023-05-17T16:09:20.810Z,7.23
2023-05-17T16:11:51.330Z,7.60
2023-05-17T16:14:28.565Z,6.80
2023-05-17T16:16:59.346Z,7.13
2023-05-17T16:19:34.296Z,7.60
2023-05-17T16:22:10.302Z,7.20
2023-05-17T16:24:42.257Z,6.40
2023-05-17T16:27:11.969Z,6.40
2023-05-17T16:29:45.724Z,7.43
2023-05-17T16:32:19.886Z,6.77
2023-05-17T16:34:52.720Z,7.37
2023-05-17T16:37:22.803Z,7.20
2023-05-17T16:39:55.398Z,7.73
2023-05-17T16:42:26.646Z,6.67
2023-05-17T16:45:01.982Z,7.10
2023-05-17T16:47:34.400Z,6.30
2023-05-17T16:50:05.917Z,6.90
2023-05-17T16:52:38.566Z,6.80
2023-05-17T16:55:08.722Z,6.03
2023-05-17T16:57:41.093Z,5.83
2023-05-17T17:00:21.199Z,6.30
2023-05-17T17:02:52.072Z,6.80
2023-05-17T17:05:21.847Z,6.87
2023-05-17T17:07:59.955Z,7.93
2023-05-17T17:10:30.501Z,6.77
2023-05-17T17:13:05.158Z,7.00
2023-05-17T17:15:38.135Z,6.60
2023-05-17T17:18:17.078Z,7.40
2023-05-17T17:20:47.042Z,6.33
2023-05-17T17:23:38.557Z,7.63
2023-05-17T17:26:14.444Z,7.50
2023-05-17T17:28:48.248Z,6.67
2023-05-17T17:31:23.524Z,7.50
2023-05-17T17:33:55.208Z,7.20
2023-05-17T17:36:33.973Z,7.47
2023-05-17T17:39:22.407Z,7.40
2023-05-17T17:42:02.838Z,7.97
2023-05-17T17:44:41.627Z,8.10
2023-05-17T17:47:19.790Z,7.80
2023-05-17T17:49:50.520Z,8.00
2023-05-17T17:52:24.267Z,8.90
2023-05-17T17:54:55.011Z,9.60
2023-05-17T17:57:25.645Z,8.37
2023-05-17T17:59:56.962Z,7.43
2023-05-17T18:02:28.415Z,8.80
2023-05-17T18:04:59.166Z,8.10
2023-05-17T18:07:34.606Z,7.27
2023-05-17T18:10:09.638Z,7.70
2023-05-17T18:12:50.944Z,7.63
2023-05-17T18:15:24.794Z,7.10
2023-05-17T18:17:59.260Z,8.50
2023-05-17T18:20:30.459Z,8.00
2023-05-17T18:23:12.348Z,7.40
2023-05-17T18:25:51.325Z,7.77
2023-05-17T18:28:30.044Z,7.80
2023-05-17T18:31:17.164Z,7.00
2023-05-17T18:33:53.211Z,7.80
2023-05-17T18:36:25.054Z,8.20
2023-05-17T18:39:01.267Z,7.10
2023-05-17T18:41:48.538Z,7.30
2023-05-17T18:44:20.428Z,8.90
2023-05-17T18:46:57.627Z,6.90
2023-05-17T18:49:43.063Z,6.10
2023-05-17T18:52:17.859Z,6.27
2023-05-17T18:54:58.616Z,6.23
2023-05-17T18:57:40.316Z,5.87
2023-05-17T19:00:25.068Z,6.00
2023-05-17T19:03:09.180Z,5.53
2023-05-17T19:05:54.703Z,5.03
2023-05-17T19:08:26.399Z,5.57
2023-05-17T19:11:01.904Z,5.37
2023-05-17T19:16:43.812Z,5.73
2023-05-17T19:19:15.961Z,5.77
2023-05-17T19:21:56.713Z,5.70
2023-05-17T19:24:26.223Z,4.87
2023-05-17T19:26:56.067Z,4.73
2023-05-17T19:29:29.517Z,4.83
2023-05-17T19:32:01.824Z,4.83
2023-05-17T19:34:30.778Z,4.97
2023-05-17T19:37:02.617Z,5.80
2023-05-17T19:39:33.584Z,4.93
2023-05-17T19:42:06.991Z,5.50
2023-05-17T19:44:39.396Z,5.10
2023-05-17T19:47:10.477Z,4.97
2023-05-17T19:49:56.863Z,5.83
2023-05-17T19:52:29.830Z,5.97
2023-05-17T19:55:06.447Z,5.80
2023-05-17T19:57:37.261Z,6.50
2023-05-17T20:00:18.627Z,5.50
2023-05-17T20:03:02.090Z,6.07
2023-05-17T20:05:45.029Z,7.17
2023-05-17T20:08:20.543Z,7.30
2023-05-17T20:10:58.249Z,7.93
2023-05-17T20:13:29.408Z,7.20
2023-05-17T20:16:18.789Z,7.27
2023-05-17T20:18:50.954Z,7.50
2023-05-17T20:21:27.604Z,6.10
2023-05-17T20:24:04.750Z,7.00
2023-05-17T20:26:39.414Z,6.70
2023-05-17T20:29:09.441Z,6.43
2023-05-17T20:31:56.741Z,6.70
2023-05-17T20:34:30.624Z,6.30
2023-05-17T20:37:10.771Z,6.37
2023-05-17T20:39:50.762Z,6.73
2023-05-17T20:42:30.055Z,7.30
2023-05-17T20:45:06.167Z,6.30
2023-05-17T20:47:50.571Z,6.40
2023-05-17T20:50:25.706Z,6.57
2023-05-17T20:52:58.581Z,6.10
2023-05-17T20:55:33.651Z,6.00
2023-05-17T20:58:10.416Z,5.67
2023-05-17T21:00:39.996Z,6.40
2023-05-17T21:03:21.644Z,5.77
2023-05-17T21:05:54.858Z,5.93
2023-05-17T21:08:24.850Z,5.20
2023-05-17T21:11:02.113Z,5.50
2023-05-17T21:13:32.476Z,5.97
2023-05-17T21:16:03.350Z,6.10
2023-05-17T21:18:40.409Z,6.03
2023-05-17T21:24:03.119Z,5.60
2023-05-17T21:26:35.367Z,5.07
2023-05-17T21:29:07.921Z,6.07
2023-05-17T21:31:39.995Z,5.30
2023-05-17T21:34:25.986Z,5.40
2023-05-17T21:37:08.788Z,5.50
2023-05-17T21:39:42.882Z,6.17
2023-05-17T21:42:16.152Z,5.70
2023-05-17T21:44:45.536Z,5.70
2023-05-17T21:47:18.227Z,5.50
2023-05-17T21:49:50.429Z,5.77
2023-05-17T21:52:27.399Z,5.90
2023-05-17T21:54:59.222Z,5.80
2023-05-17T21:57:30.904Z,5.57
2023-05-17T22:00:03.630Z,6.23
2023-05-17T22:02:41.215Z,5.73
2023-05-17T22:05:18.944Z,4.97
2023-05-17T22:07:56.852Z,5.47
2023-05-17T22:10:30.979Z,5.27
2023-05-17T22:13:05.664Z,5.30
2023-05-17T22:15:35.949Z,5.10
2023-05-17T22:18:05.988Z,5.53
2023-05-17T22:20:47.016Z,4.80
2023-05-17T22:23:17.971Z,5.40
2023-05-17T22:25:52.220Z,5.07
2023-05-17T22:28:23.676Z,6.17
2023-05-17T22:30:54.122Z,5.43
2023-05-17T22:33:25.414Z,5.27
2023-05-17T22:36:02.894Z,4.90
2023-05-17T22:38:40.441Z,5.33
2023-05-17T22:41:09.437Z,4.80
2023-05-17T22:43:40.209Z,4.83
2023-05-17T22:46:08.646Z,5.00
2023-05-17T22:48:40.584Z,6.00
2023-05-17T22:51:22.705Z,4.90
2023-05-17T22:53:55.430Z,4.73
2023-05-17T22:56:28.813Z,4.73
2023-05-17T22:58:58.938Z,4.40
2023-05-17T23:01:28.871Z,4.77
2023-05-17T23:04:10.904Z,5.53
2023-05-17T23:06:48.641Z,4.60
2023-05-17T23:09:24.263Z,5.73
2023-05-17T23:11:56.055Z,4.60
2023-05-17T23:14:26.956Z,4.47
2023-05-17T23:17:02.581Z,4.90
2023-05-17T23:19:33.957Z,5.60
2023-05-17T23:22:07.159Z,5.10
2023-05-17T23:24:38.764Z,5.60
2023-05-17T23:27:11.741Z,4.63
2023-05-17T23:29:42.009Z,4.90
2023-05-17T23:32:10.388Z,4.67
2023-05-17T23:34:48.781Z,4.33
2023-05-17T23:37:24.201Z,3.73
2023-05-17T23:39:56.170Z,4.33
2023-05-17T23:42:27.456Z,4.67
2023-05-17T23:45:08.775Z,3.70
2023-05-17T23:47:40.943Z,4.20
2023-05-17T23:50:26.491Z,4.13
2023-05-17T23:52:57.178Z,4.33
2023-05-17T23:55:34.846Z,4.60
2023-05-17T23:58:03.451Z,5.07
